Goodland, Florida
Current Conditions -  °F | °C
As of 8:15 PM on Friday 28 Nov 2014 (Local Time) from KMKY Reporting Station
Clear Clear  
Wind Chill: 55°   Ceiling: Unl
Heat Index: 55°   Visibility: 10mi
Dew Point: 39°   Wind: 6mph
Humidity: 54%   Direction: 10°N
Pressure: 30.23"   Gusts: NA
Location:  25.92°N, 81.65°W
Report Text: KMKY 290115Z 01005KT 10SM CLR 13/04 A3023 RMK AO1
Loading
Personal Weather Stations






























Interactive Weather Map New forecast layout! Learn more

10-Day Weather Forecast

Advertisements
Track Severe Weather on mobile